Time,TemperatureF,DewpointF,PressureIn,WindDirection,WindDirectionDegrees,WindSpeedMPH,WindSpeedGustMPH,Humidity,HourlyPrecipIn,Conditions,Clouds,dailyrainin,SoftwareType,DateUTC
2013-02-13 00:01:00,31.0,22.0,-100.00,NNW,345,5.0,11.0,69,0.00,,,-99.99,,2013-02-13 05:01:00,
2013-02-13 00:11:00,31.0,22.0,-100.00,NNW,345,4.0,14.0,69,0.00,,,-99.99,,2013-02-13 05:11:00,
2013-02-13 00:22:00,31.0,22.0,-100.00,North,0,3.0,7.0,69,0.00,,,-99.99,,2013-02-13 05:22:00,
2013-02-13 00:32:00,31.0,22.0,-100.00,NNW,340,2.0,7.0,69,0.00,,,-99.99,,2013-02-13 05:32:00,
2013-02-13 00:42:00,31.0,22.0,-100.00,North,5,4.0,9.0,67,0.00,,,-99.99,,2013-02-13 05:42:00,
2013-02-13 00:52:00,31.0,21.0,-100.00,North,0,4.0,7.0,66,0.00,,,-99.99,,2013-02-13 05:52:00,
2013-02-13 01:02:00,31.0,21.0,-100.00,North,0,2.0,7.0,67,0.00,,,-99.99,,2013-02-13 06:02:00,
2013-02-13 01:11:00,31.0,22.0,-100.00,WNW,300,2.0,7.0,69,0.00,,,-99.99,,2013-02-13 06:11:00,
2013-02-13 01:21:00,30.0,21.0,-100.00,North,0,4.0,10.0,67,0.00,,,-99.99,,2013-02-13 06:21:00,
2013-02-13 01:32:00,30.0,21.0,-100.00,North,0,2.0,6.0,68,0.00,,,-99.99,,2013-02-13 06:32:00,
2013-02-13 01:42:00,29.0,21.0,-100.00,NNW,345,2.0,6.0,69,0.00,,,-99.99,,2013-02-13 06:42:00,
2013-02-13 01:51:00,29.0,20.0,-100.00,North,350,4.0,7.0,69,0.00,,,-99.99,,2013-02-13 06:51:00,
2013-02-13 02:02:00,29.0,20.0,-100.00,North,350,4.0,7.0,69,0.00,,,-99.99,,2013-02-13 07:02:00,
2013-02-13 02:11:00,29.0,20.0,-100.00,North,-999,-999.0,-999.0,70,-99.99,,,-99.99,,2013-02-13 07:11:00,
2013-02-13 02:22:00,29.0,20.0,-100.00,NW,315,2.0,8.0,70,0.00,,,-99.99,,2013-02-13 07:22:00,
2013-02-13 02:32:00,28.0,20.0,-100.00,West,275,2.0,12.0,71,0.00,,,-99.99,,2013-02-13 07:32:00,
2013-02-13 02:42:00,28.0,20.0,-100.00,NNW,340,4.0,9.0,70,0.00,,,-99.99,,2013-02-13 07:42:00,
2013-02-13 02:51:00,28.0,19.0,-100.00,NNW,335,3.0,7.0,69,0.00,,,-99.99,,2013-02-13 07:51:00,
2013-02-13 03:01:00,28.0,19.0,-100.00,NNW,340,4.0,7.0,68,0.00,,,-99.99,,2013-02-13 08:01:00,
2013-02-13 03:11:00,28.0,19.0,-100.00,NNW,345,4.0,9.0,67,0.00,,,-99.99,,2013-02-13 08:11:00,
2013-02-13 03:21:00,28.0,19.0,-100.00,NNW,345,4.0,7.0,67,0.00,,,-99.99,,2013-02-13 08:21:00,
2013-02-13 03:32:00,28.0,19.0,-100.00,NW,310,2.0,9.0,68,0.00,,,-99.99,,2013-02-13 08:32:00,
2013-02-13 03:43:00,27.0,19.0,-100.00,NNW,340,6.0,9.0,68,0.00,,,-99.99,,2013-02-13 08:43:00,
2013-02-13 03:52:00,27.0,19.0,-100.00,North,-999,-999.0,-999.0,69,0.00,,,-99.99,,2013-02-13 08:52:00,
2013-02-13 04:02:00,27.0,19.0,-100.00,NNW,335,5.0,9.0,69,0.00,,,-99.99,,2013-02-13 09:02:00,
2013-02-13 04:11:00,28.0,18.0,-100.00,NNW,345,4.0,9.0,67,0.00,,,-99.99,,2013-02-13 09:11:00,
2013-02-13 04:21:00,28.0,18.0,-100.00,NNW,345,4.0,9.0,67,0.00,,,-99.99,,2013-02-13 09:21:00,
2013-02-13 04:32:00,27.0,18.0,-100.00,NNW,345,3.0,7.0,70,0.00,,,-99.99,,2013-02-13 09:32:00,
2013-02-13 04:42:00,26.0,19.0,-100.00,South,190,1.0,4.0,72,0.00,,,-99.99,,2013-02-13 09:42:00,
2013-02-13 04:51:00,26.0,18.0,-100.00,South,170,0.0,4.0,74,0.00,,,-99.99,,2013-02-13 09:51:00,
2013-02-13 05:01:00,25.0,18.0,-100.00,North,355,1.0,1.0,74,0.00,,,-99.99,,2013-02-13 10:01:00,
2013-02-13 05:11:00,25.0,18.0,-100.00,North,350,1.0,2.0,74,0.00,,,-99.99,,2013-02-13 10:11:00,
2013-02-13 05:21:00,24.0,18.0,-100.00,NNW,345,2.0,5.0,75,0.00,,,-99.99,,2013-02-13 10:21:00,
2013-02-13 05:32:00,24.0,18.0,-100.00,NNE,15,1.0,4.0,75,0.00,,,-99.99,,2013-02-13 10:32:00,
2013-02-13 05:42:00,24.0,18.0,-100.00,North,350,4.0,5.0,75,0.00,,,-99.99,,2013-02-13 10:42:00,
2013-02-13 05:51:00,25.0,18.0,-100.00,NNW,330,4.0,7.0,75,0.00,,,-99.99,,2013-02-13 10:51:00,
2013-02-13 06:01:00,25.0,18.0,-100.00,North,350,4.0,7.0,74,0.00,,,-99.99,,2013-02-13 11:01:00,
2013-02-13 06:11:00,24.0,18.0,-100.00,NNW,340,2.0,6.0,75,0.00,,,-99.99,,2013-02-13 11:11:00,
2013-02-13 06:22:00,24.0,17.0,-100.00,North,350,1.0,4.0,76,0.00,,,-99.99,,2013-02-13 11:22:00,
2013-02-13 06:32:00,23.0,17.0,-100.00,NNW,335,1.0,3.0,77,0.00,,,-99.99,,2013-02-13 11:32:00,
2013-02-13 06:42:00,23.0,17.0,-100.00,SW,225,1.0,4.0,78,0.00,,,-99.99,,2013-02-13 11:42:00,
2013-02-13 06:52:00,22.0,17.0,-100.00,West,280,1.0,6.0,78,0.00,,,-99.99,,2013-02-13 11:52:00,
2013-02-13 07:02:00,23.0,18.0,-100.00,NNW,345,1.0,3.0,79,0.00,,,-99.99,,2013-02-13 12:02:00,
2013-02-13 07:11:00,22.0,17.0,-100.00,WSW,240,0.0,2.0,80,0.00,,,-99.99,,2013-02-13 12:11:00,
2013-02-13 07:22:00,22.0,17.0,-100.00,North,350,1.0,3.0,81,0.00,,,-99.99,,2013-02-13 12:22:00,
2013-02-13 07:32:00,22.0,17.0,-100.00,North,350,1.0,3.0,81,0.00,,,-99.99,,2013-02-13 12:32:00,
2013-02-13 07:42:00,24.0,18.0,-100.00,NW,305,1.0,2.0,80,0.00,,,-99.99,,2013-02-13 12:42:00,
2013-02-13 07:52:00,24.0,19.0,-100.00,NNE,15,1.0,4.0,80,0.00,,,-99.99,,2013-02-13 12:52:00,
2013-02-13 08:02:00,25.0,20.0,-100.00,NNW,335,2.0,4.0,79,0.00,,,-99.99,,2013-02-13 13:02:00,
2013-02-13 08:11:00,26.0,20.0,-100.00,NNW,345,3.0,6.0,77,0.00,,,-99.99,,2013-02-13 13:11:00,
2013-02-13 08:21:00,27.0,20.0,-100.00,NNW,345,4.0,6.0,74,0.00,,,-99.99,,2013-02-13 13:21:00,
2013-02-13 08:32:00,28.0,20.0,-100.00,NNW,345,4.0,8.0,71,0.00,,,-99.99,,2013-02-13 13:32:00,
2013-02-13 08:42:00,29.0,20.0,-100.00,NNW,335,3.0,6.0,70,0.00,,,-99.99,,2013-02-13 13:42:00,
2013-02-13 08:51:00,30.0,19.0,-100.00,NNW,345,5.0,8.0,64,0.00,,,-99.99,,2013-02-13 13:51:00,
2013-02-13 09:01:00,30.0,19.0,-100.00,NNW,340,7.0,10.0,63,0.00,,,-99.99,,2013-02-13 14:01:00,
2013-02-13 09:11:00,30.0,19.0,-100.00,North,350,7.0,9.0,62,0.00,,,-99.99,,2013-02-13 14:11:00,
2013-02-13 09:21:00,31.0,19.0,-100.00,NNW,340,5.0,9.0,61,0.00,,,-99.99,,2013-02-13 14:21:00,
2013-02-13 09:32:00,31.0,19.0,-100.00,NNW,345,7.0,12.0,60,0.00,,,-99.99,,2013-02-13 14:32:00,
2013-02-13 09:42:00,31.0,19.0,-100.00,NNW,345,6.0,12.0,60,0.00,,,-99.99,,2013-02-13 14:42:00,
2013-02-13 09:52:00,31.0,19.0,-100.00,NNW,345,6.0,11.0,60,0.00,,,-99.99,,2013-02-13 14:52:00,
2013-02-13 10:01:00,31.0,19.0,-100.00,NNW,340,7.0,14.0,60,0.00,,,-99.99,,2013-02-13 15:01:00,
2013-02-13 10:11:00,33.0,19.0,-100.00,North,350,6.0,11.0,56,0.00,,,-99.99,,2013-02-13 15:11:00,
2013-02-13 10:21:00,33.0,19.0,-100.00,NNW,345,4.0,11.0,56,0.00,,,-99.99,,2013-02-13 15:21:00,
2013-02-13 10:32:00,33.0,19.0,-100.00,NNW,335,6.0,12.0,56,0.00,,,-99.99,,2013-02-13 15:32:00,
2013-02-13 10:42:00,34.0,19.0,-100.00,NNW,345,6.0,13.0,54,0.00,,,-99.99,,2013-02-13 15:42:00,
2013-02-13 11:01:00,33.0,18.0,-100.00,NNW,345,10.0,16.0,53,0.00,,,-99.99,,2013-02-13 16:01:00,
2013-02-13 11:11:00,34.0,18.0,-100.00,NNW,345,7.0,12.0,52,0.00,,,-99.99,,2013-02-13 16:11:00,
2013-02-13 11:21:00,35.0,19.0,-100.00,North,350,5.0,14.0,50,0.00,,,-99.99,,2013-02-13 16:21:00,
2013-02-13 11:32:00,35.0,18.0,-100.00,NNW,340,7.0,11.0,49,0.00,,,-99.99,,2013-02-13 16:32:00,
2013-02-13 11:42:00,35.0,18.0,-100.00,NNW,345,7.0,12.0,49,0.00,,,-99.99,,2013-02-13 16:42:00,
2013-02-13 11:51:00,34.0,18.0,-100.00,NNW,345,4.0,12.0,50,0.00,,,-99.99,,2013-02-13 16:51:00,
2013-02-13 12:01:00,34.0,18.0,-100.00,NNW,345,4.0,10.0,51,0.00,,,-99.99,,2013-02-13 17:01:00,
2013-02-13 12:11:00,34.0,18.0,-100.00,North,350,4.0,9.0,51,0.00,,,-99.99,,2013-02-13 17:11:00,
2013-02-13 12:21:00,34.0,18.0,-100.00,NW,325,5.0,9.0,51,0.00,,,-99.99,,2013-02-13 17:21:00,
2013-02-13 12:32:00,35.0,17.0,-100.00,North,350,2.0,7.0,48,0.00,,,-99.99,,2013-02-13 17:32:00,
2013-02-13 12:42:00,35.0,17.0,-100.00,NNW,335,8.0,12.0,49,0.00,,,-99.99,,2013-02-13 17:42:00,
2013-02-13 12:52:00,35.0,18.0,-100.00,NNW,330,6.0,12.0,48,0.00,,,-99.99,,2013-02-13 17:52:00,
2013-02-13 13:02:00,35.0,18.0,-100.00,NNW,345,9.0,14.0,48,0.00,,,-99.99,,2013-02-13 18:02:00,
2013-02-13 13:11:00,35.0,18.0,-100.00,North,350,6.0,12.0,48,0.00,,,-99.99,,2013-02-13 18:11:00,
2013-02-13 13:23:00,35.0,18.0,-100.00,North,355,2.0,9.0,50,0.00,,,-99.99,,2013-02-13 18:23:00,
2013-02-13 13:32:00,35.0,16.0,-100.00,North,350,5.0,9.0,45,0.00,,,-99.99,,2013-02-13 18:32:00,
2013-02-13 13:42:00,35.0,18.0,-100.00,NNW,345,4.0,8.0,49,0.00,,,-99.99,,2013-02-13 18:42:00,
2013-02-13 13:52:00,36.0,17.0,-100.00,North,355,2.0,7.0,45,0.00,,,-99.99,,2013-02-13 18:52:00,
2013-02-13 14:01:00,35.0,16.0,-100.00,NNW,345,6.0,13.0,45,0.00,,,-99.99,,2013-02-13 19:01:00,
2013-02-13 14:11:00,35.0,15.0,-100.00,NNW,340,5.0,8.0,43,0.00,,,-99.99,,2013-02-13 19:11:00,
2013-02-13 14:21:00,36.0,19.0,-100.00,NW,320,4.0,7.0,50,0.00,,,-99.99,,2013-02-13 19:21:00,
2013-02-13 14:32:00,36.0,17.0,-100.00,North,350,3.0,12.0,46,0.00,,,-99.99,,2013-02-13 19:32:00,
2013-02-13 14:42:00,35.0,16.0,-100.00,NNW,345,6.0,9.0,44,0.00,,,-99.99,,2013-02-13 19:42:00,
2013-02-13 14:51:00,35.0,17.0,-100.00,NW,320,2.0,9.0,46,0.00,,,-99.99,,2013-02-13 19:51:00,
2013-02-13 15:02:00,35.0,17.0,-100.00,NNW,345,2.0,7.0,47,0.00,,,-99.99,,2013-02-13 20:02:00,
2013-02-13 15:11:00,35.0,17.0,-100.00,NNW,340,4.0,9.0,48,0.00,,,-99.99,,2013-02-13 20:11:00,
2013-02-13 15:21:00,35.0,17.0,-100.00,NNW,335,4.0,10.0,48,0.00,,,-99.99,,2013-02-13 20:21:00,
2013-02-13 15:32:00,35.0,16.0,-100.00,NNW,330,5.0,9.0,45,0.00,,,-99.99,,2013-02-13 20:32:00,
2013-02-13 15:42:00,35.0,17.0,-100.00,NNW,340,3.0,7.0,47,0.00,,,-99.99,,2013-02-13 20:42:00,
2013-02-13 15:52:00,35.0,17.0,-100.00,NNW,335,4.0,7.0,46,0.00,,,-99.99,,2013-02-13 20:52:00,
2013-02-13 16:02:00,35.0,16.0,-100.00,North,355,2.0,9.0,45,0.00,,,-99.99,,2013-02-13 21:02:00,
2013-02-13 16:11:00,35.0,18.0,-100.00,NNW,345,2.0,4.0,49,0.00,,,-99.99,,2013-02-13 21:11:00,
2013-02-13 16:21:00,35.0,21.0,-100.00,NNW,340,2.0,4.0,56,0.00,,,-99.99,,2013-02-13 21:21:00,
2013-02-13 16:32:00,35.0,18.0,-100.00,NNW,340,3.0,4.0,50,0.00,,,-99.99,,2013-02-13 21:32:00,
2013-02-13 16:42:00,35.0,19.0,-100.00,NNW,345,2.0,6.0,52,0.00,,,-99.99,,2013-02-13 21:42:00,
2013-02-13 16:52:00,34.0,20.0,-100.00,West,280,1.0,6.0,56,0.00,,,-99.99,,2013-02-13 21:52:00,
2013-02-13 17:02:00,34.0,17.0,-100.00,NNW,330,3.0,6.0,49,0.00,,,-99.99,,2013-02-13 22:02:00,
2013-02-13 17:11:00,34.0,19.0,-100.00,NNW,340,3.0,5.0,55,0.00,,,-99.99,,2013-02-13 22:11:00,
2013-02-13 17:21:00,33.0,23.0,-100.00,SW,230,1.0,4.0,65,0.00,,,-99.99,,2013-02-13 22:21:00,
2013-02-13 17:32:00,32.0,22.0,-100.00,North,-999,-999.0,-999.0,63,0.00,,,-99.99,,2013-02-13 22:32:00,
2013-02-13 17:42:00,32.0,21.0,-100.00,NW,315,1.0,3.0,63,0.00,,,-99.99,,2013-02-13 22:42:00,
2013-02-13 17:51:00,31.0,20.0,-100.00,North,355,0.0,2.0,62,0.00,,,-99.99,,2013-02-13 22:51:00,
2013-02-13 18:01:00,30.0,20.0,-100.00,NNW,340,2.0,3.0,65,0.00,,,-99.99,,2013-02-13 23:01:00,
2013-02-13 18:11:00,29.0,20.0,-100.00,North,5,1.0,2.0,69,0.00,,,-99.99,,2013-02-13 23:11:00,
2013-02-13 18:21:00,28.0,20.0,-100.00,NW,310,1.0,2.0,70,0.00,,,-99.99,,2013-02-13 23:21:00,
2013-02-13 18:32:00,28.0,19.0,-100.00,NW,320,1.0,3.0,70,0.00,,,-99.99,,2013-02-13 23:32:00,
2013-02-13 18:42:00,27.0,19.0,-100.00,ENE,65,0.0,2.0,72,0.00,,,-99.99,,2013-02-13 23:42:00,
2013-02-13 18:52:00,27.0,19.0,-100.00,NNW,330,1.0,2.0,72,0.00,,,-99.99,,2013-02-13 23:52:00,
2013-02-13 19:02:00,26.0,19.0,-100.00,North,350,1.0,2.0,72,0.00,,,-99.99,,2013-02-14 00:02:00,
2013-02-13 19:11:00,26.0,19.0,-100.00,NW,315,1.0,1.0,73,0.00,,,-99.99,,2013-02-14 00:11:00,
2013-02-13 19:21:00,26.0,18.0,-100.00,North,0,0.0,2.0,73,0.00,,,-99.99,,2013-02-14 00:21:00,
2013-02-13 19:32:00,26.0,18.0,-100.00,NNW,340,2.0,4.0,74,0.00,,,-99.99,,2013-02-14 00:32:00,
2013-02-13 19:42:00,25.0,18.0,-100.00,NNE,20,0.0,2.0,74,0.00,,,-99.99,,2013-02-14 00:42:00,
2013-02-13 19:51:00,25.0,18.0,-100.00,NNW,345,0.0,1.0,74,0.00,,,-99.99,,2013-02-14 00:51:00,
2013-02-13 20:01:00,25.0,18.0,-100.00,East,100,0.0,1.0,74,0.00,,,-99.99,,2013-02-14 01:01:00,
2013-02-13 20:11:00,25.0,18.0,-100.00,SSW,200,1.0,1.0,75,0.00,,,-99.99,,2013-02-14 01:11:00,
2013-02-13 20:21:00,25.0,18.0,-100.00,NW,325,1.0,2.0,75,0.00,,,-99.99,,2013-02-14 01:21:00,
2013-02-13 20:41:00,25.0,18.0,-100.00,NW,315,1.0,1.0,75,0.00,,,-99.99,,2013-02-14 01:41:00,
2013-02-13 20:51:00,25.0,18.0,-100.00,NW,315,0.0,1.0,75,0.00,,,-99.99,,2013-02-14 01:51:00,
2013-02-13 21:01:00,24.0,18.0,-100.00,WNW,285,1.0,2.0,75,0.00,,,-99.99,,2013-02-14 02:01:00,
2013-02-13 21:11:00,25.0,18.0,-100.00,NNW,345,1.0,2.0,75,0.00,,,-99.99,,2013-02-14 02:11:00,
2013-02-13 21:21:00,25.0,18.0,-100.00,NNW,345,1.0,2.0,75,0.00,,,-99.99,,2013-02-14 02:21:00,
2013-02-13 21:32:00,24.0,18.0,-100.00,SW,225,0.0,1.0,76,0.00,,,-99.99,,2013-02-14 02:32:00,
2013-02-13 21:41:00,24.0,18.0,-100.00,SW,225,0.0,1.0,76,0.00,,,-99.99,,2013-02-14 02:41:00,
2013-02-13 21:51:00,24.0,18.0,-100.00,SW,225,0.0,1.0,76,0.00,,,-99.99,,2013-02-14 02:51:00,
2013-02-13 22:02:00,24.0,18.0,-100.00,North,0,0.0,2.0,77,0.00,,,-99.99,,2013-02-14 03:02:00,
2013-02-13 22:11:00,24.0,18.0,-100.00,NNW,340,1.0,2.0,78,0.00,,,-99.99,,2013-02-14 03:11:00,
2013-02-13 22:22:00,24.0,18.0,-100.00,WNW,300,1.0,2.0,78,0.00,,,-99.99,,2013-02-14 03:22:00,
2013-02-13 22:32:00,24.0,18.0,-100.00,NNW,340,1.0,2.0,78,0.00,,,-99.99,,2013-02-14 03:32:00,
2013-02-13 22:42:00,24.0,18.0,-100.00,NNW,340,2.0,2.0,79,0.00,,,-99.99,,2013-02-14 03:42:00,
2013-02-13 22:51:00,24.0,18.0,-100.00,NW,325,1.0,3.0,78,0.00,,,-99.99,,2013-02-14 03:51:00,
2013-02-13 23:01:00,24.0,18.0,-100.00,NNW,345,2.0,2.0,78,0.00,,,-99.99,,2013-02-14 04:01:00,
2013-02-13 23:12:00,24.0,18.0,-100.00,NNW,345,1.0,2.0,78,0.00,,,-99.99,,2013-02-14 04:12:00,
2013-02-13 23:21:00,24.0,18.0,-100.00,NNW,345,2.0,3.0,77,0.00,,,-99.99,,2013-02-14 04:21:00,
2013-02-13 23:32:00,24.0,18.0,-100.00,NW,325,2.0,3.0,77,0.00,,,-99.99,,2013-02-14 04:32:00,
2013-02-13 23:41:00,25.0,19.0,-100.00,NW,325,1.0,2.0,78,0.00,,,-99.99,,2013-02-14 04:41:00,
2013-02-13 23:51:00,28.0,19.0,-100.00,NNW,330,2.0,6.0,70,0.00,,,-99.99,,2013-02-14 04:51:00,